Time;durP1;ratioP1;P1;durP2;ratioP2;P2;SDS_P1;SDS_P2;PMS_P1;PMS_P2;Temp;Humidity;BMP_temperature;BMP_pressure;BME280_temperature;BME280_humidity;BME280_pressure;Samples;Min_cycle;Max_cycle;Signal;HPM_P1;HPM_P2
2021/04/02 00:01:40;;;;;;;17.45;8.13;;;15.40;99.90;;;;;;5092876;28;20497;-63
2021/04/02 00:04:07;;;;;;;13.98;8.10;;;15.40;99.90;;;;;;5092295;28;20453;-62
2021/04/02 00:06:33;;;;;;;10.90;7.78;;;15.30;99.90;;;;;;5091369;28;20855;-62
2021/04/02 00:09:00;;;;;;;14.25;9.02;;;15.30;99.90;;;;;;5091414;28;20853;-63
2021/04/02 00:11:27;;;;;;;13.35;8.20;;;15.20;99.90;;;;;;5091461;28;20770;-63
2021/04/02 00:13:53;;;;;;;12.45;9.48;;;15.20;99.90;;;;;;5092356;28;20457;-62
2021/04/02 00:16:21;;;;;;;14.50;10.07;;;15.20;99.90;;;;;;5093245;28;20422;-63
2021/04/02 00:18:48;;;;;;;16.33;10.00;;;15.10;99.90;;;;;;5094141;28;20421;-63
2021/04/02 00:21:16;;;;;;;16.25;11.00;;;15.10;99.90;;;;;;5092613;28;20551;-63
2021/04/02 00:23:44;;;;;;;15.95;10.95;;;14.90;99.90;;;;;;5092239;28;20433;-63
2021/04/02 00:26:13;;;;;;;14.55;9.88;;;14.80;99.90;;;;;;5091471;28;20446;-63
2021/04/02 00:28:39;;;;;;;14.55;10.98;;;14.70;99.90;;;;;;5092051;28;20521;-62
2021/04/02 00:31:07;;;;;;;18.02;10.88;;;14.70;99.90;;;;;;5095684;28;20467;-62
2021/04/02 00:33:35;;;;;;;14.27;10.23;;;14.70;99.90;;;;;;5097082;28;20750;-63
2021/04/02 00:36:03;;;;;;;14.88;10.93;;;14.70;99.90;;;;;;5095768;28;20464;-62
2021/04/02 00:38:30;;;;;;;17.73;11.52;;;14.80;99.90;;;;;;5095295;28;20861;-63
2021/04/02 00:40:59;;;;;;;17.77;10.88;;;14.70;99.90;;;;;;5095723;28;20516;-63
2021/04/02 00:43:27;;;;;;;18.17;11.60;;;14.60;99.90;;;;;;5095803;28;20424;-63
2021/04/02 00:45:54;;;;;;;16.88;11.07;;;14.50;99.90;;;;;;5096186;28;20500;-63
2021/04/02 00:48:21;;;;;;;17.20;11.30;;;14.50;99.90;;;;;;5095756;28;20465;-63
2021/04/02 00:50:51;;;;;;;18.42;11.60;;;14.50;99.90;;;;;;5096750;28;20511;-63
2021/04/02 00:53:19;;;;;;;15.77;10.70;;;14.50;99.90;;;;;;5094575;28;20860;-63
2021/04/02 00:55:46;;;;;;;19.83;12.90;;;14.50;99.90;;;;;;5094281;28;20500;-63
2021/04/02 00:58:15;;;;;;;16.23;11.60;;;14.50;99.90;;;;;;5095499;28;20780;-63
2021/04/02 01:00:42;;;;;;;17.35;11.70;;;14.40;99.90;;;;;;5095096;28;20429;-63
2021/04/02 01:03:09;;;;;;;16.77;11.50;;;14.50;99.90;;;;;;5095621;28;20418;-63
2021/04/02 01:05:38;;;;;;;15.70;11.48;;;14.50;99.90;;;;;;5095610;28;20465;-63
2021/04/02 01:08:07;;;;;;;17.52;12.40;;;14.40;99.90;;;;;;5096153;28;20727;-63
2021/04/02 01:10:35;;;;;;;15.30;11.70;;;14.40;99.90;;;;;;5095447;28;20433;-63
2021/04/02 01:13:05;;;;;;;19.02;12.57;;;14.30;99.90;;;;;;5095186;28;20505;-63
2021/04/02 01:15:37;;;;;;;15.80;11.43;;;14.30;99.90;;;;;;5095843;28;20567;-63
2021/04/02 01:18:11;;;;;;;15.63;11.07;;;14.30;99.90;;;;;;5096289;28;20502;-63
2021/04/02 01:20:40;;;;;;;15.82;11.05;;;14.20;99.90;;;;;;5096847;28;20543;-63
2021/04/02 01:23:10;;;;;;;17.33;10.60;;;14.20;99.90;;;;;;5096916;28;20460;-63
2021/04/02 01:25:48;;;;;;;16.08;10.60;;;14.10;99.90;;;;;;5097347;28;20959;-63
2021/04/02 01:28:43;;;;;;;15.73;9.27;;;14.10;99.90;;;;;;5096594;28;20479;-63
2021/04/02 01:31:11;;;;;;;14.15;9.40;;;14.10;99.90;;;;;;5096949;28;20746;-63
2021/04/02 01:33:39;;;;;;;15.50;10.27;;;14.10;99.90;;;;;;5097386;28;20437;-63
2021/04/02 01:36:07;;;;;;;14.55;9.93;;;14.00;99.90;;;;;;5096405;28;20425;-63
2021/04/02 01:38:37;;;;;;;14.68;10.88;;;14.00;99.90;;;;;;5096908;28;20521;-63
2021/04/02 01:41:06;;;;;;;14.07;9.90;;;13.80;99.90;;;;;;5096825;28;20422;-63
2021/04/02 01:43:36;;;;;;;12.52;8.75;;;13.60;99.90;;;;;;5097005;28;20786;-63
2021/04/02 01:46:05;;;;;;;15.02;10.30;;;13.50;99.90;;;;;;5095365;28;20442;-63
2021/04/02 01:48:33;;;;;;;13.48;9.32;;;13.50;99.90;;;;;;5094820;28;20791;-63
2021/04/02 01:51:02;;;;;;;13.88;8.55;;;13.50;99.90;;;;;;5095308;28;20427;-63
2021/04/02 01:53:34;;;;;;;11.40;8.77;;;13.60;99.90;;;;;;5095204;28;20461;-63
2021/04/02 01:56:02;;;;;;;11.37;8.53;;;13.70;99.90;;;;;;5094860;28;20429;-63
2021/04/02 01:58:31;;;;;;;12.98;8.60;;;13.70;99.90;;;;;;5094847;28;20551;-63
2021/04/02 02:01:00;;;;;;;13.85;8.90;;;13.60;99.90;;;;;;5094637;28;20457;-63
2021/04/02 02:03:28;;;;;;;12.77;8.25;;;13.60;99.90;;;;;;5095284;28;20826;-63
2021/04/02 02:05:59;;;;;;;13.60;8.53;;;13.50;99.90;;;;;;5096516;28;20429;-62
2021/04/02 02:08:27;;;;;;;12.07;8.07;;;13.50;99.90;;;;;;5096498;28;20434;-63
2021/04/02 02:11:00;;;;;;;11.93;7.68;;;13.50;99.90;;;;;;5096351;28;20512;-62
2021/04/02 02:13:28;;;;;;;10.32;6.68;;;13.40;99.90;;;;;;5096504;28;20875;-62
2021/04/02 02:15:56;;;;;;;7.95;6.05;;;13.40;99.90;;;;;;5096407;28;20484;-63
2021/04/02 02:18:25;;;;;;;9.00;5.70;;;13.40;99.90;;;;;;5096361;28;20518;-64
2021/04/02 02:20:53;;;;;;;10.45;5.65;;;13.20;99.90;;;;;;5095823;28;20414;-63
2021/04/02 02:23:21;;;;;;;8.48;5.50;;;13.20;99.90;;;;;;5096154;28;20868;-63
2021/04/02 02:25:48;;;;;;;8.65;5.60;;;13.10;99.90;;;;;;5096056;28;20457;-62
2021/04/02 02:28:15;;;;;;;7.32;5.03;;;13.00;99.90;;;;;;5096402;28;20476;-63
2021/04/02 02:30:45;;;;;;;7.65;4.65;;;13.10;99.90;;;;;;5095900;28;20770;-63
2021/04/02 02:33:12;;;;;;;8.82;5.70;;;13.20;99.90;;;;;;5096374;28;20458;-63
2021/04/02 02:35:39;;;;;;;10.00;5.20;;;13.10;99.90;;;;;;5095891;28;20453;-63
2021/04/02 02:38:06;;;;;;;8.02;5.10;;;13.10;99.90;;;;;;5095953;28;20418;-63
2021/04/02 02:40:36;;;;;;;8.38;5.68;;;13.10;99.90;;;;;;5094872;28;20732;-63
2021/04/02 02:43:04;;;;;;;6.63;4.70;;;13.00;99.90;;;;;;5095677;28;20507;-63
2021/04/02 02:45:32;;;;;;;6.53;3.25;;;13.00;99.90;;;;;;5095736;28;20433;-62
2021/04/02 02:47:59;;;;;;;8.00;4.07;;;13.00;99.90;;;;;;5094593;28;21053;-63
2021/04/02 02:50:29;;;;;;;6.43;3.53;;;13.00;99.90;;;;;;5095250;28;20526;-62
2021/04/02 02:52:56;;;;;;;6.63;3.35;;;13.00;99.90;;;;;;5094200;28;20458;-63
2021/04/02 02:55:26;;;;;;;6.03;3.72;;;13.00;99.90;;;;;;5095078;28;20512;-63
2021/04/02 02:57:56;;;;;;;7.82;3.22;;;12.80;99.90;;;;;;5095737;28;20421;-63
2021/04/02 03:00:26;;;;;;;7.05;3.50;;;12.60;99.90;;;;;;5095565;28;20422;-63
2021/04/02 03:02:58;;;;;;;5.07;3.30;;;12.40;99.90;;;;;;5095436;28;20872;-63
2021/04/02 03:05:27;;;;;;;5.13;2.75;;;12.50;99.90;;;;;;5095599;28;20904;-63
2021/04/02 03:07:59;;;;;;;6.28;3.15;;;12.40;99.90;;;;;;5095648;28;20425;-65
2021/04/02 03:10:26;;;;;;;5.63;2.50;;;12.50;99.90;;;;;;5095642;28;20465;-63
2021/04/02 03:12:55;;;;;;;7.20;3.58;;;12.50;99.90;;;;;;5095156;28;20429;-63
2021/04/02 03:15:23;;;;;;;6.63;4.47;;;12.60;99.90;;;;;;5094902;28;20849;-62
2021/04/02 03:17:52;;;;;;;7.82;4.30;;;12.60;99.90;;;;;;5095273;28;20422;-63
2021/04/02 03:20:19;;;;;;;7.93;4.75;;;12.40;99.90;;;;;;5095507;28;20709;-62
2021/04/02 03:22:46;;;;;;;6.10;3.95;;;12.30;99.90;;;;;;5095267;28;20456;-63
2021/04/02 03:25:16;;;;;;;6.90;3.20;;;12.20;99.90;;;;;;5095561;28;20429;-63
2021/04/02 03:27:43;;;;;;;5.10;2.50;;;12.20;99.90;;;;;;5095448;28;20453;-63
2021/04/02 03:30:14;;;;;;;5.90;3.10;;;12.10;99.90;;;;;;5095242;28;20507;-63
2021/04/02 03:32:42;;;;;;;6.47;3.00;;;12.10;99.90;;;;;;5094412;28;20856;-62
2021/04/02 03:35:11;;;;;;;5.73;2.77;;;12.10;99.90;;;;;;5094822;28;20789;-64
2021/04/02 03:37:39;;;;;;;3.92;2.33;;;12.20;99.90;;;;;;5093672;28;20418;-62
2021/04/02 03:40:08;;;;;;;3.97;2.03;;;12.20;99.90;;;;;;5095288;28;20465;-62
2021/04/02 03:42:36;;;;;;;4.85;2.08;;;12.10;99.90;;;;;;5095001;28;20471;-62
2021/04/02 03:45:05;;;;;;;3.03;2.25;;;11.90;99.90;;;;;;5094746;28;20831;-62
2021/04/02 03:47:33;;;;;;;4.32;1.90;;;11.80;99.90;;;;;;5093620;28;20457;-62
2021/04/02 03:50:02;;;;;;;4.20;2.20;;;11.80;99.90;;;;;;5094116;28;20434;-62
2021/04/02 03:52:32;;;;;;;4.20;1.70;;;11.80;99.90;;;;;;5093815;28;20480;-62
2021/04/02 03:55:01;;;;;;;4.45;1.63;;;11.80;99.90;;;;;;5094120;28;20486;-62
2021/04/02 03:57:29;;;;;;;4.20;1.80;;;11.80;99.90;;;;;;5094314;28;20433;-62
2021/04/02 03:59:59;;;;;;;4.20;1.60;;;11.70;99.90;;;;;;5094338;28;20450;-62
2021/04/02 04:02:27;;;;;;;3.30;1.50;;;11.60;99.90;;;;;;5094851;28;20445;-62
2021/04/02 04:04:56;;;;;;;3.38;1.20;;;11.60;99.90;;;;;;5097392;28;20468;-63
2021/04/02 04:07:24;;;;;;;2.95;1.40;;;11.20;99.90;;;;;;5099198;28;20505;-62
2021/04/02 04:09:53;;;;;;;2.53;1.20;;;11.10;99.90;;;;;;5098859;28;20472;-62
2021/04/02 04:12:22;;;;;;;4.28;1.48;;;11.10;99.90;;;;;;5098197;28;20505;-62
2021/04/02 04:14:50;;;;;;;2.72;1.20;;;11.20;99.90;;;;;;5098833;28;20429;-63
2021/04/02 04:17:17;;;;;;;1.63;1.05;;;11.20;99.90;;;;;;5098369;28;20794;-62
2021/04/02 04:19:47;;;;;;;2.80;0.90;;;11.10;99.90;;;;;;5098772;28;20421;-62
2021/04/02 04:22:16;;;;;;;2.28;0.93;;;11.10;99.90;;;;;;5098416;28;20754;-62
2021/04/02 04:24:45;;;;;;;1.40;0.93;;;11.10;99.90;;;;;;5098822;28;20465;-62
2021/04/02 04:27:13;;;;;;;2.00;0.80;;;10.80;99.90;;;;;;5098819;28;20425;-62
2021/04/02 04:29:42;;;;;;;1.77;0.80;;;10.60;99.90;;;;;;5098691;28;20519;-62
2021/04/02 04:32:14;;;;;;;1.90;0.90;;;10.40;99.90;;;;;;5098305;28;20461;-63
2021/04/02 04:34:41;;;;;;;1.10;0.70;;;10.20;99.90;;;;;;5098555;28;20844;-62
2021/04/02 04:37:08;;;;;;;1.80;0.60;;;10.20;99.90;;;;;;5098354;28;20453;-62
2021/04/02 04:39:37;;;;;;;1.08;0.60;;;10.10;99.90;;;;;;5098683;28;20461;-62
2021/04/02 04:42:06;;;;;;;1.13;0.60;;;10.20;99.90;;;;;;5098554;28;20465;-62
2021/04/02 04:44:33;;;;;;;1.40;0.60;;;10.30;99.90;;;;;;5098134;28;20453;-62
2021/04/02 04:46:59;;;;;;;1.30;0.60;;;10.20;99.90;;;;;;5097720;28;20502;-62
2021/04/02 04:49:26;;;;;;;1.65;0.50;;;10.20;99.90;;;;;;5097215;28;20465;-62
2021/04/02 04:51:54;;;;;;;1.60;0.50;;;10.30;99.90;;;;;;5090259;28;20482;-62
2021/04/02 04:54:24;;;;;;;1.40;0.50;;;10.40;99.90;;;;;;5080962;28;20475;-62
2021/04/02 04:56:53;;;;;;;1.10;0.50;;;10.40;99.90;;;;;;5097236;28;20418;-62
2021/04/02 04:59:22;;;;;;;0.90;0.50;;;10.20;99.90;;;;;;5097226;28;20464;-63
2021/04/02 05:01:52;;;;;;;1.40;0.60;;;10.20;99.90;;;;;;5098082;28;20929;-62
2021/04/02 05:04:19;;;;;;;0.90;0.50;;;10.20;99.90;;;;;;5097979;28;20910;-61
2021/04/02 05:06:49;;;;;;;1.00;0.40;;;10.00;99.90;;;;;;5097706;28;20440;-62
2021/04/02 05:09:16;;;;;;;1.40;0.40;;;9.80;99.90;;;;;;5097572;28;20433;-62
2021/04/02 05:11:44;;;;;;;0.80;0.40;;;9.70;99.90;;;;;;5097526;28;20519;-62
2021/04/02 05:14:13;;;;;;;1.30;0.50;;;9.80;99.90;;;;;;5097649;28;20516;-62
2021/04/02 05:16:42;;;;;;;1.20;0.40;;;9.90;99.90;;;;;;5096407;28;20449;-62
2021/04/02 05:19:10;;;;;;;0.90;0.45;;;10.00;99.90;;;;;;5097730;28;20417;-62
2021/04/02 05:21:40;;;;;;;0.80;0.50;;;9.80;99.90;;;;;;5097433;28;20765;-62
2021/04/02 05:24:08;;;;;;;0.70;0.45;;;9.60;99.90;;;;;;5096775;28;20434;-62
2021/04/02 05:26:35;;;;;;;1.20;0.70;;;9.40;99.90;;;;;;5097014;28;20787;-62
2021/04/02 05:29:02;;;;;;;0.80;0.40;;;9.50;99.90;;;;;;5096273;28;20525;-62
2021/04/02 05:31:30;;;;;;;0.70;0.40;;;9.50;99.90;;;;;;5097518;28;20475;-61
2021/04/02 05:33:57;;;;;;;0.80;0.40;;;9.50;99.90;;;;;;5097479;28;20462;-61
2021/04/02 05:36:23;;;;;;;1.20;0.50;;;9.50;99.90;;;;;;5096950;28;20519;-62
2021/04/02 05:38:50;;;;;;;0.75;0.47;;;9.40;99.90;;;;;;5097076;28;20513;-62
2021/04/02 05:41:20;;;;;;;1.67;0.50;;;9.30;99.90;;;;;;5097145;28;20437;-62
2021/04/02 05:43:50;;;;;;;0.95;0.50;;;9.20;99.90;;;;;;5096844;28;20437;-61
2021/04/02 05:46:20;;;;;;;0.80;0.40;;;9.20;99.90;;;;;;5096558;28;20516;-62
2021/04/02 05:48:50;;;;;;;2.03;0.50;;;9.30;99.90;;;;;;5096815;28;20510;-63
2021/04/02 05:51:17;;;;;;;0.85;0.50;;;9.50;99.90;;;;;;5095189;28;20426;-61
2021/04/02 05:53:44;;;;;;;1.20;0.40;;;9.60;99.90;;;;;;5096157;28;20440;-62
2021/04/02 05:56:11;;;;;;;1.52;0.50;;;9.70;99.90;;;;;;5096700;28;20422;-61
2021/04/02 05:58:38;;;;;;;2.10;0.60;;;9.70;99.90;;;;;;5093936;28;20733;-62
2021/04/02 06:01:05;;;;;;;0.80;0.50;;;9.70;99.90;;;;;;5093492;28;20516;-61
2021/04/02 06:03:32;;;;;;;1.05;0.50;;;9.70;99.90;;;;;;5094662;28;20483;-62
2021/04/02 06:05:59;;;;;;;1.30;0.50;;;9.90;99.90;;;;;;5094348;28;20450;-62
2021/04/02 06:08:28;;;;;;;2.50;0.63;;;9.90;99.90;;;;;;5094449;28;20480;-62
2021/04/02 06:10:54;;;;;;;1.13;0.60;;;9.90;99.90;;;;;;5094800;28;20438;-62
2021/04/02 06:13:21;;;;;;;1.30;0.60;;;9.90;99.90;;;;;;5095384;28;20442;-62
2021/04/02 06:15:48;;;;;;;1.50;0.60;;;9.60;99.90;;;;;;5096296;28;20420;-62
2021/04/02 06:18:14;;;;;;;1.70;0.70;;;9.50;99.90;;;;;;5096077;28;20421;-62
2021/04/02 06:20:43;;;;;;;0.90;0.60;;;9.50;99.90;;;;;;5095930;28;20410;-62
2021/04/02 06:23:13;;;;;;;1.10;0.52;;;9.40;99.90;;;;;;5095938;28;20426;-62
2021/04/02 06:25:47;;;;;;;1.50;0.70;;;9.40;99.90;;;;;;5095614;28;20422;-62
2021/04/02 06:28:17;;;;;;;2.43;0.70;;;9.40;99.90;;;;;;5094478;28;20454;-62
2021/04/02 06:30:44;;;;;;;1.02;0.65;;;9.30;99.90;;;;;;5096357;28;20454;-62
2021/04/02 06:33:11;;;;;;;1.17;0.52;;;9.50;99.90;;;;;;5095863;28;20496;-63
2021/04/02 06:35:41;;;;;;;1.00;0.60;;;9.50;99.90;;;;;;5095810;28;20462;-62
2021/04/02 06:38:08;;;;;;;2.00;0.80;;;9.40;99.90;;;;;;5095514;28;20453;-62
2021/04/02 06:40:36;;;;;;;1.20;0.70;;;9.40;99.90;;;;;;5094652;28;20422;-62
2021/04/02 06:43:03;;;;;;;2.15;0.70;;;9.50;99.90;;;;;;5093293;28;20506;-62
2021/04/02 06:45:30;;;;;;;1.10;0.70;;;9.70;99.90;;;;;;5094128;28;20453;-62
2021/04/02 06:48:09;;;;;;;1.20;0.70;;;9.90;99.90;;;;;;5093766;28;20566;-59
2021/04/02 06:50:36;;;;;;;1.27;0.70;;;9.90;99.90;;;;;;5093606;28;20484;-62
2021/04/02 06:53:04;;;;;;;1.40;0.60;;;9.80;99.90;;;;;;5094677;28;20425;-62
2021/04/02 06:55:31;;;;;;;1.30;0.70;;;9.60;99.90;;;;;;5095444;28;20418;-62
2021/04/02 06:58:06;;;;;;;1.20;0.70;;;9.60;99.90;;;;;;5095505;28;20414;-62
2021/04/02 07:00:35;;;;;;;1.10;0.70;;;9.70;99.90;;;;;;5095092;28;20487;-62
2021/04/02 07:03:02;;;;;;;3.20;0.80;;;9.40;99.90;;;;;;5093940;28;20445;-62
2021/04/02 07:05:30;;;;;;;1.98;0.90;;;9.60;99.90;;;;;;5094447;28;20426;-63
2021/04/02 07:08:01;;;;;;;2.90;0.80;;;9.70;99.90;;;;;;5095129;28;21062;-60
2021/04/02 07:10:28;;;;;;;1.00;0.70;;;9.80;99.90;;;;;;5094766;28;20434;-61
2021/04/02 07:12:56;;;;;;;1.90;0.80;;;9.90;99.90;;;;;;5093959;28;20425;-60
2021/04/02 07:15:24;;;;;;;3.80;0.90;;;10.10;99.90;;;;;;5094432;28;20475;-61
2021/04/02 07:17:50;;;;;;;1.13;0.67;;;10.20;99.90;;;;;;5094753;28;20460;-61
2021/04/02 07:20:17;;;;;;;1.92;0.80;;;10.20;99.90;;;;;;5094441;28;20583;-61
2021/04/02 07:22:44;;;;;;;1.83;0.90;;;10.10;99.90;;;;;;5094874;28;20448;-61
2021/04/02 07:25:12;;;;;;;2.70;0.80;;;10.00;99.90;;;;;;5088988;28;20528;-61
2021/04/02 07:27:38;;;;;;;1.20;0.90;;;10.10;99.90;;;;;;5094474;28;20476;-62
2021/04/02 07:30:08;;;;;;;1.40;0.80;;;10.00;99.90;;;;;;5094678;28;20638;-62
2021/04/02 07:32:37;;;;;;;3.08;1.00;;;10.00;99.90;;;;;;5091476;28;20422;-62
2021/04/02 07:35:05;;;;;;;1.30;0.80;;;10.10;99.90;;;;;;5083993;28;20782;-62
2021/04/02 07:37:36;;;;;;;1.90;0.90;;;10.30;99.90;;;;;;5071861;28;20701;-62
2021/04/02 07:40:05;;;;;;;1.45;0.80;;;10.40;99.90;;;;;;5087862;28;20450;-62
2021/04/02 07:42:32;;;;;;;2.70;0.90;;;10.50;99.90;;;;;;5086033;28;20845;-62
2021/04/02 07:45:00;;;;;;;1.90;0.90;;;10.40;99.90;;;;;;5093742;28;20468;-62
2021/04/02 07:47:27;;;;;;;3.20;1.00;;;10.40;99.90;;;;;;5094273;28;20627;-61
2021/04/02 07:49:58;;;;;;;1.33;0.90;;;10.50;99.90;;;;;;5093095;28;20433;-62
2021/04/02 07:52:38;;;;;;;2.00;1.03;;;10.50;99.90;;;;;;5093448;28;20742;-62
2021/04/02 07:55:10;;;;;;;4.68;1.05;;;10.50;99.90;;;;;;5093342;28;20430;-62
2021/04/02 07:57:52;;;;;;;2.05;1.00;;;10.40;99.90;;;;;;5086961;28;20427;-62
2021/04/02 08:00:23;;;;;;;1.90;1.10;;;10.40;99.90;;;;;;5092974;28;20687;-62
2021/04/02 08:03:07;;;;;;;2.40;1.15;;;10.40;99.90;;;;;;5094086;28;20504;-62
2021/04/02 08:05:34;;;;;;;2.70;1.20;;;10.30;99.90;;;;;;5094392;28;20433;-62
2021/04/02 08:08:00;;;;;;;2.50;1.20;;;10.50;99.90;;;;;;5092426;28;20421;-62
2021/04/02 08:10:27;;;;;;;1.95;1.10;;;10.60;99.90;;;;;;5094044;28;20493;-61
2021/04/02 08:12:53;;;;;;;1.83;1.00;;;10.70;99.90;;;;;;5093482;28;20445;-62
2021/04/02 08:15:22;;;;;;;2.20;1.00;;;10.70;99.90;;;;;;5094068;28;20429;-62
2021/04/02 08:17:49;;;;;;;2.60;1.10;;;10.70;99.90;;;;;;5093148;28;20426;-62
2021/04/02 08:20:19;;;;;;;2.20;1.10;;;10.80;99.90;;;;;;5093734;28;20429;-63
2021/04/02 08:22:48;;;;;;;1.83;1.10;;;10.80;99.90;;;;;;5086983;28;20806;-62
2021/04/02 08:25:17;;;;;;;1.85;1.30;;;11.10;99.90;;;;;;5092797;28;20807;-63
2021/04/02 08:27:45;;;;;;;1.90;1.20;;;11.00;99.90;;;;;;5088205;28;20814;-63
2021/04/02 08:30:14;;;;;;;3.42;1.10;;;10.90;99.90;;;;;;5073797;28;20475;-62
2021/04/02 08:32:42;;;;;;;2.10;1.20;;;10.90;99.90;;;;;;5090105;28;20418;-62
2021/04/02 08:35:11;;;;;;;1.95;1.10;;;10.80;99.90;;;;;;5079858;28;20510;-62
2021/04/02 08:37:38;;;;;;;3.75;1.20;;;11.00;99.90;;;;;;5071395;28;20426;-63
2021/04/02 08:40:09;;;;;;;2.17;1.00;;;11.30;99.90;;;;;;5090822;28;20807;-62
2021/04/02 08:42:36;;;;;;;1.90;1.10;;;11.40;99.90;;;;;;5092922;28;20418;-61
2021/04/02 08:45:07;;;;;;;1.90;1.10;;;11.50;99.90;;;;;;5093376;28;20806;-61
2021/04/02 08:47:37;;;;;;;2.10;1.10;;;11.50;99.90;;;;;;5085183;28;20439;-61
2021/04/02 08:50:04;;;;;;;1.80;1.10;;;11.60;99.90;;;;;;5091482;28;20461;-61
2021/04/02 08:52:32;;;;;;;2.70;1.40;;;11.70;99.90;;;;;;5095444;28;20879;-61
2021/04/02 08:55:01;;;;;;;1.67;1.10;;;11.70;99.90;;;;;;5091164;28;20465;-60
2021/04/02 08:57:30;;;;;;;2.65;1.20;;;11.80;99.90;;;;;;5094506;28;20864;-61
2021/04/02 08:59:57;;;;;;;1.77;1.20;;;11.90;99.90;;;;;;5085502;28;20826;-61
2021/04/02 09:02:26;;;;;;;2.10;1.40;;;12.00;99.90;;;;;;5093272;28;20501;-60
2021/04/02 09:04:53;;;;;;;2.40;1.50;;;11.80;99.90;;;;;;5090507;28;20469;-61
2021/04/02 09:07:19;;;;;;;2.40;1.60;;;11.70;99.90;;;;;;5094661;28;20498;-60
2021/04/02 09:09:48;;;;;;;2.03;1.30;;;11.60;99.90;;;;;;5095827;28;20532;-60
2021/04/02 09:12:16;;;;;;;3.80;1.30;;;11.90;99.90;;;;;;5094456;28;20422;-61
2021/04/02 09:14:44;;;;;;;2.97;1.52;;;11.90;99.90;;;;;;5092661;28;20438;-61
2021/04/02 09:17:13;;;;;;;2.97;1.55;;;11.80;99.90;;;;;;5094653;28;20530;-60
2021/04/02 09:19:40;;;;;;;2.70;1.40;;;11.90;99.90;;;;;;5096583;28;20424;-61
2021/04/02 09:22:07;;;;;;;2.15;1.13;;;12.00;99.90;;;;;;5093780;28;20487;-61
2021/04/02 09:24:34;;;;;;;3.38;1.80;;;12.20;99.90;;;;;;5095611;28;20434;-61
2021/04/02 09:27:07;;;;;;;2.90;1.40;;;12.20;99.90;;;;;;5095339;28;20486;-60
2021/04/02 09:29:34;;;;;;;3.05;1.40;;;12.20;99.90;;;;;;5077905;28;20493;-61
2021/04/02 09:32:03;;;;;;;3.17;1.80;;;12.10;99.90;;;;;;5074417;28;20455;-60
2021/04/02 09:34:31;;;;;;;3.28;1.60;;;12.20;99.90;;;;;;5074703;28;20467;-60
2021/04/02 09:36:58;;;;;;;2.72;1.45;;;12.50;99.90;;;;;;5074540;28;20455;-63
2021/04/02 09:39:26;;;;;;;3.90;1.48;;;12.60;99.90;;;;;;5084061;28;20975;-60
2021/04/02 09:41:54;;;;;;;3.05;1.38;;;12.90;99.90;;;;;;5090061;28;20459;-60
2021/04/02 09:44:21;;;;;;;3.75;1.55;;;12.60;99.90;;;;;;5095210;28;20421;-61
2021/04/02 09:46:50;;;;;;;2.90;1.50;;;12.70;99.90;;;;;;5095018;28;20522;-61
2021/04/02 09:49:20;;;;;;;3.63;1.40;;;12.60;99.90;;;;;;5080379;28;20438;-61
2021/04/02 09:51:48;;;;;;;2.25;1.40;;;12.70;99.90;;;;;;5088654;28;20480;-61
2021/04/02 09:54:16;;;;;;;2.70;1.60;;;12.80;99.90;;;;;;5093798;28;20465;-61
2021/04/02 09:56:43;;;;;;;3.40;1.40;;;13.00;99.90;;;;;;5094446;28;20496;-61
2021/04/02 09:59:10;;;;;;;2.83;1.50;;;12.80;99.90;;;;;;5090940;28;20432;-61
2021/04/02 10:01:39;;;;;;;2.05;1.30;;;13.00;99.90;;;;;;5073409;28;20447;-61
2021/04/02 10:04:07;;;;;;;3.40;1.30;;;12.90;99.90;;;;;;5092231;28;20509;-61
2021/04/02 10:06:35;;;;;;;3.00;1.50;;;12.90;99.90;;;;;;5087274;28;20462;-61
2021/04/02 10:09:04;;;;;;;2.85;1.40;;;13.20;99.90;;;;;;5074099;28;20910;-61
2021/04/02 10:11:30;;;;;;;2.53;1.80;;;13.30;99.90;;;;;;5089738;28;20468;-61
2021/04/02 10:13:57;;;;;;;2.30;1.70;;;13.30;99.90;;;;;;5094179;28;20437;-61
2021/04/02 10:16:24;;;;;;;2.80;1.35;;;13.40;99.90;;;;;;5085880;28;20514;-61
2021/04/02 10:18:51;;;;;;;1.70;1.20;;;13.20;99.90;;;;;;5073570;28;20729;-61
2021/04/02 10:21:19;;;;;;;2.37;1.37;;;13.20;99.90;;;;;;5072382;28;20825;-60
2021/04/02 10:23:47;;;;;;;2.13;1.65;;;13.60;99.90;;;;;;5087625;28;20895;-60
2021/04/02 10:26:13;;;;;;;2.35;1.40;;;14.10;99.90;;;;;;5094642;28;20422;-60
2021/04/02 10:28:40;;;;;;;2.80;1.80;;;14.30;99.90;;;;;;5095028;28;20422;-60
2021/04/02 10:31:07;;;;;;;2.60;1.30;;;14.40;99.90;;;;;;5094038;28;20486;-60
2021/04/02 10:33:33;;;;;;;3.03;1.83;;;14.40;99.90;;;;;;5073256;28;21033;-61
2021/04/02 10:36:00;;;;;;;2.40;1.48;;;14.30;99.90;;;;;;5073224;28;20466;-61
2021/04/02 10:38:27;;;;;;;2.00;1.40;;;14.60;99.90;;;;;;5075307;28;20451;-60
2021/04/02 10:40:54;;;;;;;2.00;1.30;;;14.80;99.90;;;;;;5082115;28;20515;-60
2021/04/02 10:43:21;;;;;;;2.22;1.33;;;15.10;99.90;;;;;;5077812;28;20745;-60
2021/04/02 10:45:47;;;;;;;2.70;1.50;;;15.20;99.90;;;;;;5094002;28;20446;-60
2021/04/02 10:48:14;;;;;;;3.20;1.80;;;15.20;99.90;;;;;;5091878;28;20430;-60
2021/04/02 10:50:42;;;;;;;2.08;1.88;;;15.10;99.90;;;;;;5093360;28;20465;-61
2021/04/02 10:53:09;;;;;;;3.70;1.50;;;14.80;99.90;;;;;;5092543;28;20418;-61
2021/04/02 10:55:36;;;;;;;2.60;1.42;;;14.70;99.90;;;;;;5090938;28;20702;-60
2021/04/02 10:58:06;;;;;;;2.75;1.60;;;15.40;99.90;;;;;;5090199;28;20424;-61
2021/04/02 11:00:33;;;;;;;2.40;1.50;;;15.70;99.90;;;;;;5092602;28;20426;-62
2021/04/02 11:02:59;;;;;;;2.00;1.20;;;15.60;99.90;;;;;;5091754;28;20437;-60
2021/04/02 11:05:26;;;;;;;1.90;1.40;;;15.50;99.90;;;;;;5091532;28;20523;-61
2021/04/02 11:07:52;;;;;;;1.70;1.50;;;15.60;99.80;;;;;;5089657;28;20414;-60
2021/04/02 11:10:19;;;;;;;2.50;1.20;;;15.30;99.90;;;;;;5091585;28;20526;-60
2021/04/02 11:12:46;;;;;;;1.80;1.40;;;15.50;99.90;;;;;;5091407;28;20530;-60
2021/04/02 11:15:13;;;;;;;1.70;1.30;;;15.90;99.90;;;;;;5092535;28;20495;-61
2021/04/02 11:17:41;;;;;;;2.40;1.33;;;16.30;98.40;;;;;;5093662;28;20430;-61
2021/04/02 11:20:09;;;;;;;2.05;1.30;;;16.80;97.00;;;;;;5093694;28;20689;-61
2021/04/02 11:22:35;;;;;;;1.67;1.20;;;16.80;95.80;;;;;;5093529;28;20426;-60
2021/04/02 11:25:04;;;;;;;1.40;1.10;;;16.80;95.90;;;;;;5091793;28;20589;-61
2021/04/02 11:27:30;;;;;;;1.67;1.27;;;16.50;95.10;;;;;;5093300;28;20418;-61
2021/04/02 11:29:56;;;;;;;1.77;1.20;;;16.80;95.80;;;;;;5092945;28;20531;-61
2021/04/02 11:32:24;;;;;;;1.33;1.10;;;16.50;95.50;;;;;;5093870;28;20537;-61
2021/04/02 11:34:50;;;;;;;1.75;1.30;;;16.40;95.80;;;;;;5093285;28;20457;-61
2021/04/02 11:37:18;;;;;;;1.80;1.25;;;16.30;96.10;;;;;;5093439;28;20422;-61
2021/04/02 11:39:45;;;;;;;2.13;1.20;;;16.50;96.30;;;;;;5094337;28;20444;-61
2021/04/02 11:42:12;;;;;;;1.85;1.02;;;16.70;95.90;;;;;;5093422;28;20418;-61
2021/04/02 11:44:39;;;;;;;1.65;1.00;;;17.00;95.80;;;;;;5092565;28;20435;-62
2021/04/02 11:47:06;;;;;;;2.35;1.10;;;17.10;93.20;;;;;;5093687;28;20669;-61
2021/04/02 11:49:33;;;;;;;1.65;1.10;;;16.90;94.20;;;;;;5093404;28;20445;-63
2021/04/02 11:52:00;;;;;;;1.60;1.00;;;16.60;92.80;;;;;;5080546;28;20498;-62
2021/04/02 11:54:26;;;;;;;1.65;1.10;;;16.70;92.70;;;;;;5080423;28;20928;-61
2021/04/02 11:56:53;;;;;;;2.63;1.00;;;17.00;93.10;;;;;;5092874;28;20417;-61
2021/04/02 11:59:19;;;;;;;2.50;1.10;;;16.70;93.20;;;;;;5092485;28;20485;-62
2021/04/02 12:01:46;;;;;;;1.60;1.00;;;16.80;92.60;;;;;;5092909;28;20861;-62
2021/04/02 12:04:13;;;;;;;1.40;0.90;;;16.70;92.70;;;;;;5092550;28;20495;-62
2021/04/02 12:06:41;;;;;;;1.40;0.90;;;16.20;91.40;;;;;;5093379;28;20481;-62
2021/04/02 12:09:09;;;;;;;1.50;1.00;;;16.10;93.00;;;;;;5093432;28;20757;-62
2021/04/02 12:11:36;;;;;;;1.20;0.90;;;16.60;92.10;;;;;;5076405;28;20536;-61
2021/04/02 12:14:02;;;;;;;1.60;1.00;;;16.90;91.20;;;;;;5072223;28;20428;-61
2021/04/02 12:16:29;;;;;;;1.50;1.10;;;16.90;90.30;;;;;;5091010;28;20550;-61
2021/04/02 12:18:55;;;;;;;1.77;1.00;;;16.80;90.00;;;;;;5093352;28;20484;-62
2021/04/02 12:21:23;;;;;;;1.60;0.90;;;17.20;88.90;;;;;;5092350;28;20410;-62
2021/04/02 12:23:50;;;;;;;1.45;0.90;;;17.40;89.60;;;;;;5092564;28;20520;-62
2021/04/02 12:26:16;;;;;;;1.10;0.80;;;17.50;87.70;;;;;;5095870;28;20799;-62
2021/04/02 12:28:43;;;;;;;1.40;0.90;;;17.30;88.60;;;;;;5089242;28;20458;-62
2021/04/02 12:31:09;;;;;;;1.10;0.80;;;17.40;89.10;;;;;;5094256;28;20722;-62
2021/04/02 12:33:36;;;;;;;1.90;0.90;;;17.70;84.50;;;;;;5094350;28;20457;-62
2021/04/02 12:36:02;;;;;;;1.10;0.83;;;17.40;83.60;;;;;;5093181;28;20487;-62
2021/04/02 12:38:32;;;;;;;1.30;0.82;;;16.80;86.00;;;;;;5094395;28;20461;-62
2021/04/02 12:40:59;;;;;;;1.20;0.80;;;16.50;86.30;;;;;;5095415;28;20457;-62
2021/04/02 12:43:26;;;;;;;1.27;0.80;;;17.00;85.80;;;;;;5090289;28;20504;-62
2021/04/02 12:45:52;;;;;;;1.50;0.90;;;17.60;83.50;;;;;;5082812;28;20882;-62
2021/04/02 12:48:20;;;;;;;1.30;0.90;;;18.00;83.30;;;;;;5095302;28;20424;-63
2021/04/02 12:50:47;;;;;;;1.60;0.90;;;18.10;81.40;;;;;;5094842;28;20442;-62